Time;durP1;ratioP1;P1;durP2;ratioP2;P2;SDS_P1;SDS_P2;PMS_P1;PMS_P2;Temp;Humidity;BMP_temperature;BMP_pressure;BME280_temperature;BME280_humidity;BME280_pressure;Samples;Min_cycle;Max_cycle;Signal;HPM_P1;HPM_P2
2022/08/12 00:44:04;;;;;;;;;;;;;;;19.97;88.88;95339.06;5104103;28;1182;-48
2022/08/12 00:46:37;;;;;;;;;;;;;;;19.91;89.95;95332.63;5115558;28;1024;-48
2022/08/12 00:49:03;;;;;;;;;;;;;;;19.91;91.23;95335.34;5115527;28;1104;-48
2022/08/12 00:54:14;;;;;;;;;;;;;;;19.94;90.80;95337.63;5114971;28;1202;-48
2022/08/12 00:56:41;;;;;;;;;;;;;;;19.89;91.38;95329.31;5115443;28;1032;-48
2022/08/12 00:59:08;;;;;;;;;;;;;;;19.88;92.10;95333.03;5115015;28;1989;-48
2022/08/12 01:01:34;;;;;;;;;;;;;;;19.83;91.61;95324.75;5115227;28;964;-48
2022/08/12 01:12:16;;;;;;;;;;;;;;;19.56;92.26;95324.81;5115014;28;1032;-48
2022/08/12 01:14:42;;;;;;;;;;;;;;;19.49;92.37;95332.13;5115154;28;1049;-48
2022/08/12 01:17:08;;;;;;;;;;;;;;;19.59;92.58;95332.50;5115039;28;1989;-48
2022/08/12 01:19:34;;;;;;;;;;;;;;;19.56;92.25;95323.94;5115051;28;980;-48
2022/08/12 01:22:12;;;;;;;;;;;;;;;19.60;92.42;95336.88;5115047;28;1039;-48
2022/08/12 01:24:42;;;;;;;;;;;;;;;19.64;92.71;95338.13;5114669;28;1091;-48
2022/08/12 01:27:09;;;;;;;;;;;;;;;19.65;91.02;95337.09;5114928;28;1025;-48
2022/08/12 01:29:40;;;;;;;;;;;;;;;19.67;91.03;95342.28;5114661;28;1008;-48
2022/08/12 01:32:09;;;;;;;;;;;;;;;19.49;92.59;95341.06;5114688;28;1962;-48
2022/08/12 01:34:37;;;;;;;;;;;;;;;19.51;93.50;95340.88;5114619;28;1053;-48
2022/08/12 01:37:05;;;;;;;;;;;;;;;19.50;93.57;95339.19;5114389;28;1902;-48
2022/08/12 01:39:32;;;;;;;;;;;;;;;19.47;93.29;95335.03;5114388;28;962;-48
2022/08/12 01:42:02;;;;;;;;;;;;;;;19.47;93.61;95329.59;5114688;28;1223;-48
2022/08/12 01:44:29;;;;;;;;;;;;;;;19.51;94.18;95322.72;5101610;28;1161;-48
2022/08/12 01:47:02;;;;;;;;;;;;;;;19.48;93.71;95330.44;5094059;28;1033;-48
2022/08/12 01:49:47;;;;;;;;;;;;;;;19.36;93.17;95318.59;5093966;28;1052;-48
2022/08/12 01:52:32;;;;;;;;;;;;;;;19.26;93.09;95317.13;5093819;28;1029;-48
2022/08/12 01:54:59;;;;;;;;;;;;;;;19.28;94.13;95317.75;5093731;28;1254;-48
2022/08/12 01:57:46;;;;;;;;;;;;;;;19.27;94.60;95317.97;5093899;28;1980;-48
2022/08/12 02:00:14;;;;;;;;;;;;;;;19.34;93.75;95313.38;5093558;28;1742;-48
2022/08/12 02:02:47;;;;;;;;;;;;;;;19.37;93.38;95314.81;5093810;28;1016;-48
2022/08/12 02:11:30;;;;;;;;;;;;;;;19.28;95.61;95325.06;5093794;28;981;-48
2022/08/12 02:13:59;;;;;;;;;;;;;;;19.39;95.60;95320.84;5093731;28;976;-48
2022/08/12 02:16:44;;;;;;;;;;;;;;;19.36;96.45;95324.00;5093659;28;1052;-48
2022/08/12 02:19:28;;;;;;;;;;;;;;;19.21;94.59;95330.47;5093308;28;1920;-48
2022/08/12 02:22:13;;;;;;;;;;;;;;;19.14;94.58;95326.94;5093776;28;981;-48
2022/08/12 02:24:41;;;;;;;;;;;;;;;19.08;95.65;95322.38;5093526;28;929;-48
2022/08/12 02:27:09;;;;;;;;;;;;;;;19.15;96.20;95325.09;5093549;28;1048;-48
2022/08/12 02:29:36;;;;;;;;;;;;;;;19.24;95.38;95324.66;5093295;28;1123;-48
2022/08/12 02:32:02;;;;;;;;;;;;;;;19.25;94.69;95323.59;5093655;28;1048;-48
2022/08/12 02:34:29;;;;;;;;;;;;;;;19.22;94.37;95321.31;5093345;28;1091;-48
2022/08/12 02:36:56;;;;;;;;;;;;;;;19.01;94.82;95322.38;5093471;28;1906;-48
2022/08/12 02:39:23;;;;;;;;;;;;;;;18.97;96.02;95323.00;5093200;28;1094;-48
2022/08/12 02:41:51;;;;;;;;;;;;;;;19.19;93.10;95315.47;5093467;28;1036;-48
2022/08/12 02:44:19;;;;;;;;;;;;;;;19.27;93.67;95328.81;5104257;28;1146;-48
2022/08/12 02:46:48;;;;;;;;;;;;;;;19.22;94.20;95313.19;5113854;28;1019;-48
2022/08/12 02:49:31;;;;;;;;;;;;;;;19.19;95.36;95315.47;5113767;28;996;-48
2022/08/12 02:51:58;;;;;;;;;;;;;;;19.24;96.07;95310.28;5113746;28;1071;-48
2022/08/12 02:54:25;;;;;;;;;;;;;;;19.25;95.46;95309.22;5113419;28;1226;-48
2022/08/12 02:56:51;;;;;;;;;;;;;;;19.28;94.85;95311.50;5113548;28;973;-48
2022/08/12 02:59:18;;;;;;;;;;;;;;;19.23;95.17;95314.84;5113682;28;1910;-48
2022/08/12 03:01:48;;;;;;;;;;;;;;;19.30;92.99;95312.97;5113563;28;1117;-48
2022/08/12 03:04:25;;;;;;;;;;;;;;;19.14;93.94;95307.97;5114117;28;1024;-48
2022/08/12 03:07:13;;;;;;;;;;;;;;;19.14;94.94;95309.84;5117581;28;1013;-48
2022/08/12 03:09:58;;;;;;;;;;;;;;;18.99;95.24;95319.06;5117682;28;1200;-48
2022/08/12 03:12:25;;;;;;;;;;;;;;;18.92;94.56;95315.50;5117928;28;1068;-48
2022/08/12 03:14:52;;;;;;;;;;;;;;;18.80;95.73;95309.91;5117419;28;1023;-48
2022/08/12 03:17:25;;;;;;;;;;;;;;;18.75;94.80;95315.06;5117229;28;1913;-48
2022/08/12 03:19:52;;;;;;;;;;;;;;;18.75;95.60;95312.34;5117086;28;1587;-47
2022/08/12 03:22:19;;;;;;;;;;;;;;;18.88;95.50;95311.56;5117431;28;988;-48
2022/08/12 03:24:45;;;;;;;;;;;;;;;18.90;95.41;95307.59;5117171;28;980;-48
2022/08/12 03:27:13;;;;;;;;;;;;;;;18.90;95.63;95310.28;5116960;28;1095;-48
2022/08/12 03:29:40;;;;;;;;;;;;;;;18.99;94.11;95310.06;5117208;28;1036;-48
2022/08/12 03:32:06;;;;;;;;;;;;;;;19.08;93.00;95315.09;5116847;28;1028;-48
2022/08/12 03:34:35;;;;;;;;;;;;;;;19.16;93.44;95314.03;5117006;28;1033;-48
2022/08/12 03:37:03;;;;;;;;;;;;;;;19.10;95.02;95318.44;5116716;28;1976;-48
2022/08/12 03:39:40;;;;;;;;;;;;;;;19.09;94.82;95316.75;5117066;28;1033;-48
2022/08/12 03:42:08;;;;;;;;;;;;;;;19.08;94.26;95314.25;5116820;28;997;-48
2022/08/12 04:01:09;;;;;;;;;;;;;;;18.81;95.44;95314.25;5116334;28;981;-48
2022/08/12 04:03:51;;;;;;;;;;;;;;;18.81;95.89;95324.25;5116483;28;1136;-48
2022/08/12 04:06:17;;;;;;;;;;;;;;;18.77;96.98;95318.41;5116452;28;985;-48
2022/08/12 04:08:46;;;;;;;;;;;;;;;18.89;94.58;95324.91;5116339;28;1045;-48
2022/08/12 04:14:07;;;;;;;;;;;;;;;19.07;94.00;95320.72;5116292;28;1087;-48
2022/08/12 04:16:34;;;;;;;;;;;;;;;19.08;94.83;95323.22;5114930;28;1055;-48
2022/08/12 04:19:00;;;;;;;;;;;;;;;19.10;95.70;95325.69;5116303;28;1902;-48
2022/08/12 04:21:26;;;;;;;;;;;;;;;19.10;96.15;95318.44;5116080;28;1051;-48
2022/08/12 04:23:54;;;;;;;;;;;;;;;19.19;95.97;95320.91;5116056;28;1095;-48
2022/08/12 04:26:20;;;;;;;;;;;;;;;19.22;95.59;95321.31;5115795;28;1052;-49
2022/08/12 04:28:46;;;;;;;;;;;;;;;19.26;96.44;95327.16;5115985;28;1023;-48
2022/08/12 04:31:13;;;;;;;;;;;;;;;19.28;95.65;95319.66;5115928;28;958;-49
2022/08/12 04:33:41;;;;;;;;;;;;;;;19.24;96.11;95321.94;5115436;28;1087;-48
2022/08/12 04:36:07;;;;;;;;;;;;;;;19.29;97.12;95324.88;5115454;28;1451;-48
2022/08/12 04:38:33;;;;;;;;;;;;;;;19.36;96.52;95319.41;5115654;28;1905;-48
2022/08/12 04:41:00;;;;;;;;;;;;;;;19.43;96.94;95327.53;5115703;28;1831;-48
2022/08/12 04:43:28;;;;;;;;;;;;;;;19.51;96.89;95316.47;5115385;28;1157;-48
2022/08/12 04:45:54;;;;;;;;;;;;;;;19.57;96.41;95318.31;5115486;28;1075;-48
2022/08/12 04:48:21;;;;;;;;;;;;;;;19.57;95.46;95323.75;5115405;28;953;-48
2022/08/12 04:50:47;;;;;;;;;;;;;;;19.73;93.43;95319.78;5115059;28;1228;-48
2022/08/12 04:53:13;;;;;;;;;;;;;;;19.78;93.09;95324.53;5114958;28;1191;-48
2022/08/12 04:55:41;;;;;;;;;;;;;;;19.69;94.40;95322.03;5115431;28;1028;-48
2022/08/12 04:58:07;;;;;;;;;;;;;;;19.74;94.67;95328.75;5114865;28;1983;-48
2022/08/12 05:00:33;;;;;;;;;;;;;;;19.66;95.53;95322.47;5115498;28;1024;-48
2022/08/12 05:02:59;;;;;;;;;;;;;;;19.74;95.91;95321.41;5088488;28;1253;-48
2022/08/12 05:05:25;;;;;;;;;;;;;;;19.75;93.87;95320.38;5094908;28;1049;-48
2022/08/12 05:07:52;;;;;;;;;;;;;;;19.75;96.50;95322.25;5093920;28;937;-48
2022/08/12 05:10:20;;;;;;;;;;;;;;;19.74;95.92;95332.28;5094643;28;1088;-48
2022/08/12 05:12:48;;;;;;;;;;;;;;;19.78;95.93;95332.69;5094405;28;1033;-48
2022/08/12 05:15:14;;;;;;;;;;;;;;;19.74;97.67;95336.88;5093972;28;1504;-49
2022/08/12 05:17:41;;;;;;;;;;;;;;;19.71;96.98;95335.41;5109661;28;1917;-48
2022/08/12 05:20:10;;;;;;;;;;;;;;;19.84;95.48;95335.38;5115005;28;974;-48
2022/08/12 05:22:37;;;;;;;;;;;;;;;19.88;95.02;95331.19;5114771;28;1186;-48
2022/08/12 05:25:05;;;;;;;;;;;;;;;19.91;94.00;95337.22;5114716;28;953;-49
2022/08/12 05:27:32;;;;;;;;;;;;;;;19.99;93.92;95343.22;5113544;28;1141;-48
2022/08/12 05:29:58;;;;;;;;;;;;;;;19.90;95.42;95333.69;5114950;28;1045;-48
2022/08/12 05:32:26;;;;;;;;;;;;;;;19.93;93.58;95335.97;5114589;28;1052;-48
2022/08/12 05:34:52;;;;;;;;;;;;;;;19.94;94.71;95334.94;5114848;28;1013;-48
2022/08/12 05:37:22;;;;;;;;;;;;;;;19.98;94.58;95330.72;5114380;28;1906;-48
2022/08/12 05:39:48;;;;;;;;;;;;;;;19.95;93.49;95338.47;5114568;28;1072;-47
2022/08/12 05:42:15;;;;;;;;;;;;;;;19.96;93.21;95340.97;5114341;28;1013;-47
2022/08/12 05:44:41;;;;;;;;;;;;;;;19.97;93.21;95339.06;5114567;28;1149;-48
2022/08/12 05:47:07;;;;;;;;;;;;;;;20.02;92.58;95339.28;5114279;28;1877;-48
2022/08/12 05:49:33;;;;;;;;;;;;;;;20.04;94.25;95339.88;5114441;28;1028;-48
2022/08/12 05:52:01;;;;;;;;;;;;;;;20.02;94.56;95339.28;5114437;28;1128;-48
2022/08/12 05:54:27;;;;;;;;;;;;;;;20.01;93.50;95346.56;5113959;28;1333;-47
2022/08/12 05:56:53;;;;;;;;;;;;;;;20.12;93.89;95336.09;5114443;28;1020;-48
2022/08/12 05:59:20;;;;;;;;;;;;;;;20.15;95.13;95335.69;5114005;28;1902;-48
2022/08/12 06:01:46;;;;;;;;;;;;;;;20.19;94.72;95337.72;5114159;28;1021;-49
2022/08/12 06:04:13;;;;;;;;;;;;;;;20.15;94.07;95338.38;5114065;28;1053;-48
2022/08/12 06:06:41;;;;;;;;;;;;;;;20.10;94.49;95339.03;5114151;28;969;-48
2022/08/12 06:09:10;;;;;;;;;;;;;;;20.09;94.34;95348.22;5113842;28;1860;-48
2022/08/12 06:11:36;;;;;;;;;;;;;;;20.27;93.66;95342.91;5114290;28;1005;-48
2022/08/12 06:14:02;;;;;;;;;;;;;;;20.38;92.58;95351.41;5112840;28;1773;-49
2022/08/12 06:16:31;;;;;;;;;;;;;;;20.59;93.04;95342.94;5114110;28;974;-60
2022/08/12 06:18:57;;;;;;;;;;;;;;;20.84;90.80;95345.69;5112570;28;1905;-48
2022/08/12 06:21:23;;;;;;;;;;;;;;;20.89;90.54;95342.34;5110907;28;2925;-50
2022/08/12 06:23:50;;;;;;;;;;;;;;;20.99;91.82;95344.56;5103989;28;3573;-49
2022/08/12 06:26:19;;;;;;;;;;;;;;;21.10;89.65;95349.28;5097990;28;3613;-49
2022/08/12 06:28:47;;;;;;;;;;;;;;;21.28;87.18;95344.94;5093017;28;3640;-49
2022/08/12 06:31:15;;;;;;;;;;;;;;;21.57;85.79;95349.72;5093302;28;1315;-49
2022/08/12 06:33:43;;;;;;;;;;;;;;;21.88;84.16;95347.06;5113324;28;1241;-49
2022/08/12 06:36:12;;;;;;;;;;;;;;;21.86;83.49;95333.69;5113488;28;1040;-49
2022/08/12 06:38:39;;;;;;;;;;;;;;;22.10;85.66;95337.38;5112657;28;1979;-49
2022/08/12 06:43:52;;;;;;;;;;;;;;;22.42;82.69;95324.41;5106338;28;1246;-49
2022/08/12 06:46:20;;;;;;;;;;;;;;;22.49;80.10;95327.03;5117651;28;1240;-49
2022/08/12 06:48:48;;;;;;;;;;;;;;;22.76;78.88;95324.72;5117483;28;1029;-49
2022/08/12 06:51:15;;;;;;;;;;;;;;;23.07;79.21;95335.63;5117854;28;1048;-49
2022/08/12 06:53:43;;;;;;;;;;;;;;;23.33;79.28;95329.72;5099209;28;1125;-49
2022/08/12 06:56:09;;;;;;;;;;;;;;;23.64;78.46;95327.69;5117753;28;1047;-48
2022/08/12 06:58:38;;;;;;;;;;;;;;;23.85;77.81;95326.28;5099264;28;2506;-49
2022/08/12 07:01:05;;;;;;;;;;;;;;;24.16;75.34;95335.94;5117525;28;1044;-49
2022/08/12 07:03:31;;;;;;;;;;;;;;;23.78;74.87;95328.28;5117114;28;1119;-48
2022/08/12 07:05:58;;;;;;;;;;;;;;;23.72;74.75;95331.97;5117361;28;1060;-48
2022/08/12 07:08:29;;;;;;;;;;;;;;;23.94;75.98;95327.56;5116789;28;960;-49
2022/08/12 07:10:57;;;;;;;;;;;;;;;24.12;74.61;95323.84;5117473;28;1024;-49
2022/08/12 07:13:25;;;;;;;;;;;;;;;24.14;74.57;95323.59;5117118;28;1180;-48
2022/08/12 07:15:54;;;;;;;;;;;;;;;23.97;73.45;95318.06;5117224;28;1008;-49
2022/08/12 07:18:20;;;;;;;;;;;;;;;23.88;72.81;95316.78;5111023;28;3496;-48
2022/08/12 07:20:47;;;;;;;;;;;;;;;23.89;75.33;95318.44;5117186;28;1045;-49
2022/08/12 07:23:14;;;;;;;;;;;;;;;24.19;74.58;95325.59;5117210;28;1024;-48
2022/08/12 07:25:41;;;;;;;;;;;;;;;24.37;71.99;95319.94;5116904;28;1004;-49
2022/08/12 07:28:26;;;;;;;;;;;;;;;24.49;75.03;95319.88;5116726;28;1337;-49
2022/08/12 07:30:53;;;;;;;;;;;;;;;24.63;71.92;95323.22;5116985;28;961;-48
2022/08/12 07:33:24;;;;;;;;;;;;;;;24.49;69.73;95319.88;5117062;28;957;-48
2022/08/12 07:35:52;;;;;;;;;;;;;;;24.47;72.05;95322.91;5116696;28;1275;-48
2022/08/12 07:38:24;;;;;;;;;;;;;;;24.69;69.70;95324.94;5116660;28;1909;-49
2022/08/12 07:40:53;;;;;;;;;;;;;;;24.78;71.66;95322.66;5112271;28;1244;-48
2022/08/12 07:43:20;;;;;;;;;;;;;;;24.77;69.92;95321.00;5109859;28;1200;-49
2022/08/12 07:45:46;;;;;;;;;;;;;;;24.72;69.80;95321.75;5105571;28;1472;-49
2022/08/12 07:48:12;;;;;;;;;;;;;;;24.49;69.84;95317.16;5116323;28;1190;-49
2022/08/12 07:50:38;;;;;;;;;;;;;;;24.31;72.21;95316.28;5115521;28;1263;-48
2022/08/12 07:53:04;;;;;;;;;;;;;;;24.11;73.45;95315.88;5116344;28;1092;-48
2022/08/12 07:55:30;;;;;;;;;;;;;;;24.07;72.31;95311.97;5116180;28;962;-51
2022/08/12 07:57:58;;;;;;;;;;;;;;;24.40;70.87;95315.88;5116620;28;1901;-51
2022/08/12 08:00:25;;;;;;;;;;;;;;;24.53;69.26;95304.72;5116293;28;969;-51
2022/08/12 08:02:53;;;;;;;;;;;;;;;24.34;68.61;95306.78;5116508;28;965;-50
2022/08/12 08:05:20;;;;;;;;;;;;;;;23.85;72.44;95309.91;5116020;28;1016;-50
2022/08/12 08:07:46;;;;;;;;;;;;;;;23.62;72.06;95308.00;5116222;28;1068;-50
2022/08/12 08:10:13;;;;;;;;;;;;;;;23.38;75.41;95309.91;5115895;28;996;-50
2022/08/12 08:12:57;;;;;;;;;;;;;;;23.56;74.93;95309.78;5116415;28;1048;-51
2022/08/12 08:15:29;;;;;;;;;;;;;;;23.88;71.06;95312.13;5116094;28;965;-51
2022/08/12 08:18:01;;;;;;;;;;;;;;;24.38;67.08;95307.97;5099806;28;3350;-51
2022/08/12 08:20:29;;;;;;;;;;;;;;;24.52;64.52;95300.31;5095390;28;1035;-50
2022/08/12 08:22:58;;;;;;;;;;;;;;;24.74;65.66;95306.75;5095418;28;984;-51
2022/08/12 08:25:30;;;;;;;;;;;;;;;24.87;63.73;95302.00;5095270;28;1056;-50
2022/08/12 08:27:57;;;;;;;;;;;;;;;25.24;65.08;95307.88;5095521;28;1110;-50
2022/08/12 08:30:23;;;;;;;;;;;;;;;25.14;62.00;95305.75;5095144;28;1031;-50
2022/08/12 08:32:49;;;;;;;;;;;;;;;25.04;65.08;95299.28;5095366;28;1025;-50
2022/08/12 08:35:15;;;;;;;;;;;;;;;25.15;67.08;95303.84;5095101;28;961;-50
2022/08/12 08:37:45;;;;;;;;;;;;;;;25.09;63.80;95302.13;5095127;28;1914;-50
2022/08/12 08:42:56;;;;;;;;;;;;;;;25.12;65.23;95302.44;5095348;28;1019;-50
2022/08/12 08:45:22;;;;;;;;;;;;;;;25.31;61.89;95297.59;5114902;28;1213;-50
2022/08/12 08:47:48;;;;;;;;;;;;;;;25.40;61.83;95303.47;5112388;28;1255;-50
2022/08/12 08:50:14;;;;;;;;;;;;;;;25.54;62.24;95297.66;5113774;28;1316;-50
2022/08/12 08:52:41;;;;;;;;;;;;;;;25.66;62.02;95290.97;5114186;28;1269;-50
2022/08/12 08:55:08;;;;;;;;;;;;;;;25.71;60.83;95292.94;5115055;28;1250;-50
2022/08/12 08:57:34;;;;;;;;;;;;;;;25.67;60.39;95294.53;5115363;28;1905;-50
2022/08/12 09:00:01;;;;;;;;;;;;;;;25.61;60.91;95290.06;5115031;28;1032;-50
2022/08/12 09:02:27;;;;;;;;;;;;;;;25.71;60.46;95296.50;5114463;28;1072;-50
2022/08/12 09:04:53;;;;;;;;;;;;;;;25.63;61.81;95301.59;5114968;28;1032;-50
2022/08/12 09:07:20;;;;;;;;;;;;;;;25.78;64.24;95293.59;5111466;28;3249;-50
2022/08/12 09:09:46;;;;;;;;;;;;;;;25.78;62.88;95287.28;5113826;28;3452;-50
2022/08/12 09:14:57;;;;;;;;;;;;;;;25.99;61.80;95271.97;5094610;28;965;-50
2022/08/12 09:17:23;;;;;;;;;;;;;;;26.21;60.32;95270.03;5094170;28;1998;-50
2022/08/12 09:19:49;;;;;;;;;;;;;;;26.21;55.84;95270.03;5094638;28;988;-50
2022/08/12 09:22:15;;;;;;;;;;;;;;;26.19;57.66;95264.00;5094230;28;1052;-50
2022/08/12 09:24:40;;;;;;;;;;;;;;;26.37;58.60;95264.72;5094162;28;3312;-50
2022/08/12 09:27:07;;;;;;;;;;;;;;;26.55;59.46;95258.06;5094068;28;973;-50
2022/08/12 09:29:33;;;;;;;;;;;;;;;26.55;57.34;95253.41;5094249;28;966;-50
2022/08/12 09:32:00;;;;;;;;;;;;;;;26.55;57.97;95252.59;5093916;28;1040;-50
2022/08/12 09:34:28;;;;;;;;;;;;;;;26.40;57.31;95253.25;5094200;28;1061;-50
2022/08/12 09:36:55;;;;;;;;;;;;;;;26.56;59.85;95259.72;5094151;28;1106;-50
2022/08/12 09:39:21;;;;;;;;;;;;;;;26.79;59.20;95261.34;5094074;28;1983;-50
2022/08/12 09:45:19;;;;;;;;;;;;;;;27.02;55.92;95262.91;5093928;28;1025;-50
2022/08/12 09:47:19;;;;;;;;;;;;;;;26.82;55.53;95250.66;5114274;28;1041;-50
2022/08/12 09:49:46;;;;;;;;;;;;;;;26.90;56.94;95257.59;5114401;28;1104;-50
2022/08/12 09:52:14;;;;;;;;;;;;;;;26.78;55.28;95246.78;5114024;28;972;-50
2022/08/12 09:54:40;;;;;;;;;;;;;;;26.85;56.77;95246.59;5113874;28;1096;-50
2022/08/12 09:57:10;;;;;;;;;;;;;;;27.00;55.60;95246.72;5111396;28;1304;-50
2022/08/12 09:59:36;;;;;;;;;;;;;;;27.11;57.08;95246.78;5114461;28;1008;-50
2022/08/12 10:02:03;;;;;;;;;;;;;;;27.09;56.75;95241.56;5103955;28;3396;-50
2022/08/12 10:04:28;;;;;;;;;;;;;;;26.70;56.12;95233.56;5110237;28;1083;-50
2022/08/12 10:06:54;;;;;;;;;;;;;;;26.05;57.31;95232.63;5095728;28;965;-50
2022/08/12 10:09:20;;;;;;;;;;;;;;;25.69;60.90;95227.50;5113934;28;1020;-50
2022/08/12 10:14:33;;;;;;;;;;;;;;;25.99;61.23;95222.66;5082268;28;1309;-51
2022/08/12 10:16:59;;;;;;;;;;;;;;;25.93;58.45;95219.03;5113737;28;1032;-50
2022/08/12 10:19:25;;;;;;;;;;;;;;;25.80;59.52;95217.50;5113887;28;1978;-50
2022/08/12 10:21:53;;;;;;;;;;;;;;;25.73;60.93;95219.59;5113722;28;969;-50
2022/08/12 10:24:22;;;;;;;;;;;;;;;25.66;61.23;95216.22;5094593;28;2089;-50
2022/08/12 10:29:37;;;;;;;;;;;;;;;25.42;62.58;95221.09;5113833;28;1032;-50
2022/08/12 10:32:08;;;;;;;;;;;;;;;25.43;60.76;95207.16;5113669;28;1055;-50
2022/08/12 10:34:34;;;;;;;;;;;;;;;25.50;61.42;95205.06;5113675;28;961;-50
2022/08/12 10:37:01;;;;;;;;;;;;;;;25.64;62.04;95207.44;5113556;28;1012;-50
2022/08/12 10:39:32;;;;;;;;;;;;;;;25.61;61.24;95196.97;5113602;28;1898;-50
2022/08/12 10:44:45;;;;;;;;;;;;;;;25.60;63.51;95192.59;5113595;28;1161;-50
2022/08/12 10:47:11;;;;;;;;;;;;;;;25.65;63.32;95190.75;5113405;28;1000;-50
2022/08/12 10:49:37;;;;;;;;;;;;;;;25.71;61.88;95186.16;5113879;28;992;-50
2022/08/12 10:52:06;;;;;;;;;;;;;;;25.68;62.37;95183.94;5112464;28;1133;-51
2022/08/12 10:54:32;;;;;;;;;;;;;;;25.68;63.10;95186.66;5112510;28;1212;-50
2022/08/12 10:56:59;;;;;;;;;;;;;;;25.69;61.98;95182.88;5113351;28;1080;-50
2022/08/12 10:59:28;;;;;;;;;;;;;;;25.63;63.50;95184.72;5113435;28;1980;-50
2022/08/12 11:01:58;;;;;;;;;;;;;;;25.64;64.59;95169.91;5104219;28;3720;-50
2022/08/12 11:04:25;;;;;;;;;;;;;;;25.56;64.77;95175.03;5093181;28;1025;-50
2022/08/12 11:06:52;;;;;;;;;;;;;;;25.58;63.63;95173.69;5093241;28;1065;-50
2022/08/12 11:09:29;;;;;;;;;;;;;;;25.75;63.82;95175.53;5093056;28;1049;-50
2022/08/12 11:11:56;;;;;;;;;;;;;;;26.09;62.24;95173.47;5075006;28;1029;-50
2022/08/12 11:14:32;;;;;;;;;;;;;;;26.49;61.91;95172.22;5092791;28;1049;-51
2022/08/12 11:17:02;;;;;;;;;;;;;;;26.77;61.60;95162.03;5093188;28;1045;-50
2022/08/12 11:19:29;;;;;;;;;;;;;;;26.82;59.29;95156.59;5096098;28;1898;-51
2022/08/12 11:21:56;;;;;;;;;;;;;;;26.85;59.89;95153.31;5113410;28;1044;-51
2022/08/12 11:24:23;;;;;;;;;;;;;;;26.85;58.78;95151.41;5113008;28;1040;-51
2022/08/12 11:26:49;;;;;;;;;;;;;;;26.90;59.33;95147.03;5116311;28;1037;-51
2022/08/12 11:29:16;;;;;;;;;;;;;;;26.65;61.32;95157.56;5116312;28;1142;-50
2022/08/12 11:31:42;;;;;;;;;;;;;;;26.35;60.11;95160.00;5116357;28;1331;-50
2022/08/12 11:34:08;;;;;;;;;;;;;;;26.13;61.25;95147.22;5116923;28;1048;-51
2022/08/12 11:36:34;;;;;;;;;;;;;;;25.97;61.40;95142.66;5116961;28;1056;-51
2022/08/12 11:39:00;;;;;;;;;;;;;;;25.80;60.21;95145.44;5116651;28;1971;-51
2022/08/12 11:41:26;;;;;;;;;;;;;;;25.68;61.14;95140.13;5116811;28;981;-50
2022/08/12 11:43:52;;;;;;;;;;;;;;;25.57;60.60;95136.44;5116548;28;1149;-50
2022/08/12 11:46:18;;;;;;;;;;;;;;;25.48;61.86;95143.47;5116995;28;1049;-56
2022/08/12 11:48:44;;;;;;;;;;;;;;;25.44;61.65;95136.81;5116675;28;976;-50
2022/08/12 11:51:10;;;;;;;;;;;;;;;25.39;61.29;95134.84;5116725;28;1012;-52
2022/08/12 11:53:37;;;;;;;;;;;;;;;25.31;61.90;95143.53;5098110;28;1100;-50
2022/08/12 11:56:06;;;;;;;;;;;;;;;25.22;62.89;95132.16;5116591;28;987;-51
2022/08/12 11:58:32;;;;;;;;;;;;;;;25.07;64.82;95129.22;5116280;28;1902;-51
2022/08/12 12:00:58;;;;;;;;;;;;;;;24.96;64.09;95121.94;5115527;28;3344;-50
2022/08/12 12:03:24;;;;;;;;;;;;;;;24.78;66.31;95120.34;5095996;28;1171;-50
2022/08/12 12:05:51;;;;;;;;;;;;;;;24.64;66.98;95131.59;5096146;28;1039;-50
2022/08/12 12:08:23;;;;;;;;;;;;;;;24.54;66.29;95126.81;5095768;28;1099;-50
2022/08/12 12:10:50;;;;;;;;;;;;;;;24.38;66.17;95137.69;5095773;28;1561;-51
2022/08/12 12:13:19;;;;;;;;;;;;;;;24.12;66.75;95140.00;5095603;28;1052;-50
2022/08/12 12:15:46;;;;;;;;;;;;;;;24.00;66.45;95139.22;5096019;28;996;-50
2022/08/12 12:18:22;;;;;;;;;;;;;;;23.97;66.40;95133.19;5095330;28;1985;-50
2022/08/12 12:20:48;;;;;;;;;;;;;;;23.95;67.34;95129.88;5095733;28;1012;-50
2022/08/12 12:23:14;;;;;;;;;;;;;;;23.97;65.57;95127.72;5095591;28;1024;-49
2022/08/12 12:25:40;;;;;;;;;;;;;;;23.95;66.47;95121.69;5095696;28;1064;-50
2022/08/12 12:28:06;;;;;;;;;;;;;;;24.04;67.58;95116.66;5095469;28;1103;-50
2022/08/12 12:30:33;;;;;;;;;;;;;;;23.99;68.83;95119.28;5095324;28;1833;-50
2022/08/12 12:32:59;;;;;;;;;;;;;;;23.85;69.58;95113.31;5095477;28;1037;-50
2022/08/12 12:35:25;;;;;;;;;;;;;;;23.80;72.52;95109.69;5095302;28;965;-50
2022/08/12 12:37:58;;;;;;;;;;;;;;;23.88;70.33;95112.81;5094181;28;1906;-50
2022/08/12 12:40:26;;;;;;;;;;;;;;;24.12;68.01;95109.97;5099317;28;1307;-49
2022/08/12 12:42:52;;;;;;;;;;;;;;;24.40;66.48;95102.75;5115911;28;1034;-49
2022/08/12 12:45:19;;;;;;;;;;;;;;;24.58;66.09;95098.97;5114704;28;1227;-50
2022/08/12 12:47:51;;;;;;;;;;;;;;;24.74;67.28;95103.59;5115675;28;941;-50
2022/08/12 12:50:17;;;;;;;;;;;;;;;24.86;64.32;95100.75;5115296;28;1040;-50
2022/08/12 12:52:43;;;;;;;;;;;;;;;24.92;62.87;95097.00;5115393;28;1059;-50
2022/08/12 12:55:09;;;;;;;;;;;;;;;25.07;62.20;95085.44;5097101;28;1224;-50
2022/08/12 12:57:39;;;;;;;;;;;;;;;25.11;60.40;95073.72;5115273;28;1902;-50
2022/08/12 13:00:14;;;;;;;;;;;;;;;25.26;59.86;95066.84;5115072;28;1040;-50
2022/08/12 13:02:44;;;;;;;;;;;;;;;25.39;60.08;95057.41;5101441;28;2966;-50
2022/08/12 13:05:11;;;;;;;;;;;;;;;25.51;59.96;95053.44;5094606;28;1021;-50
2022/08/12 13:07:41;;;;;;;;;;;;;;;25.69;59.62;95048.69;5095054;28;1071;-50
2022/08/12 13:10:08;;;;;;;;;;;;;;;25.73;60.85;95032.59;5094724;28;1028;-50
2022/08/12 13:12:34;;;;;;;;;;;;;;;25.81;58.29;95035.66;5094807;28;1080;-50
2022/08/12 13:15:02;;;;;;;;;;;;;;;25.88;56.71;95035.47;5094649;28;1064;-50
2022/08/12 13:17:31;;;;;;;;;;;;;;;25.92;57.89;95035.81;5094571;28;1913;-51
2022/08/12 13:23:19;;;;;;;;;;;;;;;26.08;59.30;95037.56;5115007;28;1059;-51
2022/08/12 13:25:45;;;;;;;;;;;;;;;26.11;59.28;95048.00;5114509;28;949;-51
2022/08/12 13:28:29;;;;;;;;;;;;;;;26.08;58.25;95041.13;5096579;28;1101;-51
2022/08/12 13:30:56;;;;;;;;;;;;;;;26.04;58.54;95050.13;5096619;28;993;-51
2022/08/12 13:33:26;;;;;;;;;;;;;;;26.13;58.23;95045.84;5114490;28;1029;-50
2022/08/12 13:35:59;;;;;;;;;;;;;;;26.26;58.73;95041.84;5114639;28;970;-50
2022/08/12 13:38:37;;;;;;;;;;;;;;;26.45;57.87;95036.75;5114490;28;2009;-50
2022/08/12 13:41:04;;;;;;;;;;;;;;;26.58;55.70;95028.06;5114208;28;1174;-50
2022/08/12 13:43:31;;;;;;;;;;;;;;;26.60;55.46;95036.88;5113555;28;1355;-50
2022/08/12 13:46:00;;;;;;;;;;;;;;;26.58;55.37;95040.94;5113840;28;1092;-50
2022/08/12 13:48:28;;;;;;;;;;;;;;;26.55;56.82;95041.47;5114089;28;1873;-50
2022/08/12 13:50:55;;;;;;;;;;;;;;;26.53;57.73;95035.44;5114264;28;1036;-50
2022/08/12 13:53:21;;;;;;;;;;;;;;;26.55;52.84;95027.78;5113803;28;1111;-50
2022/08/12 13:55:48;;;;;;;;;;;;;;;26.61;54.69;95035.78;5114309;28;1052;-50
2022/08/12 13:58:16;;;;;;;;;;;;;;;26.64;55.01;95024.28;5113557;28;1984;-50
2022/08/12 14:00:50;;;;;;;;;;;;;;;26.71;54.97;95021.31;5113798;28;1142;-50
2022/08/12 14:03:20;;;;;;;;;;;;;;;26.72;55.71;95019.41;5113570;28;1649;-51
2022/08/12 14:05:47;;;;;;;;;;;;;;;26.69;56.18;95012.53;5113966;28;1161;-50
2022/08/12 14:08:14;;;;;;;;;;;;;;;26.71;58.17;95012.25;5114287;28;1029;-50
2022/08/12 14:10:42;;;;;;;;;;;;;;;26.70;56.38;95016.09;5113908;28;1032;-50
2022/08/12 14:13:10;;;;;;;;;;;;;;;26.62;59.16;95015.50;5113799;28;1020;-50
2022/08/12 14:15:42;;;;;;;;;;;;;;;26.51;54.89;95013.78;5113769;28;1020;-50
2022/08/12 14:18:11;;;;;;;;;;;;;;;26.41;55.25;95017.28;5113191;28;1995;-49
2022/08/12 14:20:37;;;;;;;;;;;;;;;26.39;55.07;95019.47;5113971;28;961;-50
2022/08/12 14:23:03;;;;;;;;;;;;;;;26.40;56.66;95015.59;5113699;28;1037;-49
2022/08/12 14:25:29;;;;;;;;;;;;;;;26.41;53.66;95022.75;5095750;28;1472;-49
2022/08/12 14:28:10;;;;;;;;;;;;;;;26.38;54.83;95016.97;5113902;28;970;-50
2022/08/12 14:30:57;;;;;;;;;;;;;;;26.33;55.00;95025.16;5113778;28;1028;-50
2022/08/12 14:33:24;;;;;;;;;;;;;;;26.26;57.67;95025.41;5113721;28;878;-50
2022/08/12 14:35:51;;;;;;;;;;;;;;;26.25;56.45;95030.03;5112754;28;966;-49
2022/08/12 14:38:17;;;;;;;;;;;;;;;26.23;57.78;95024.00;5113586;28;1910;-50
2022/08/12 14:40:43;;;;;;;;;;;;;;;26.28;57.79;95029.50;5113549;28;1032;-49
2022/08/12 14:43:09;;;;;;;;;;;;;;;26.24;57.99;95024.84;5111919;28;1149;-49
2022/08/12 14:45:35;;;;;;;;;;;;;;;26.19;58.15;95025.59;5092742;28;978;-50